sensor_id;sensor_type;location;lat;lon;timestamp;pressure;altitude;pressure_sealevel;temperature
77728;BMP280;68312;53.502;10.030;2023-05-10T00:01:32;101060.34;;;13.05
77728;BMP280;68312;53.502;10.030;2023-05-10T00:03:57;101055.59;;;12.99
77728;BMP280;68312;53.502;10.030;2023-05-10T00:06:22;101059.38;;;12.89
77728;BMP280;68312;53.502;10.030;2023-05-10T00:08:48;101055.31;;;12.80
77728;BMP280;68312;53.502;10.030;2023-05-10T00:11:13;101050.25;;;12.67
77728;BMP280;68312;53.502;10.030;2023-05-10T00:13:39;101042.47;;;12.70
77728;BMP280;68312;53.502;10.030;2023-05-10T00:16:08;101052.38;;;12.73
77728;BMP280;68312;53.502;10.030;2023-05-10T00:18:33;101054.09;;;12.69
77728;BMP280;68312;53.502;10.030;2023-05-10T00:20:59;101042.38;;;12.58
77728;BMP280;68312;53.502;10.030;2023-05-10T00:23:24;101042.13;;;12.51
77728;BMP280;68312;53.502;10.030;2023-05-10T00:25:50;101034.88;;;12.48
77728;BMP280;68312;53.502;10.030;2023-05-10T00:28:15;101045.72;;;12.47
77728;BMP280;68312;53.502;10.030;2023-05-10T00:30:41;101043.91;;;12.39
77728;BMP280;68312;53.502;10.030;2023-05-10T00:33:06;101047.94;;;12.37
77728;BMP280;68312;53.502;10.030;2023-05-10T00:35:32;101041.50;;;12.26
77728;BMP280;68312;53.502;10.030;2023-05-10T00:37:57;101039.50;;;12.23
77728;BMP280;68312;53.502;10.030;2023-05-10T00:40:23;101038.47;;;12.16
77728;BMP280;68312;53.502;10.030;2023-05-10T00:42:48;101041.41;;;12.06
77728;BMP280;68312;53.502;10.030;2023-05-10T00:45:14;101038.38;;;11.95
77728;BMP280;68312;53.502;10.030;2023-05-10T00:47:39;101043.81;;;11.90
77728;BMP280;68312;53.502;10.030;2023-05-10T00:50:07;101035.28;;;11.93
77728;BMP280;68312;53.502;10.030;2023-05-10T00:52:33;101030.81;;;11.94
77728;BMP280;68312;53.502;10.030;2023-05-10T00:54:59;101027.25;;;11.90
77728;BMP280;68312;53.502;10.030;2023-05-10T00:57:25;101020.56;;;11.92
77728;BMP280;68312;53.502;10.030;2023-05-10T00:59:51;101019.19;;;11.95
77728;BMP280;68312;53.502;10.030;2023-05-10T01:02:16;101020.09;;;11.99
77728;BMP280;68312;53.502;10.030;2023-05-10T01:04:42;101021.31;;;12.01
77728;BMP280;68312;53.502;10.030;2023-05-10T01:07:08;101020.78;;;11.88
77728;BMP280;68312;53.502;10.030;2023-05-10T01:09:34;101020.16;;;11.82
77728;BMP280;68312;53.502;10.030;2023-05-10T01:12:00;101027.31;;;11.73
77728;BMP280;68312;53.502;10.030;2023-05-10T01:14:27;101022.81;;;11.74
77728;BMP280;68312;53.502;10.030;2023-05-10T01:16:53;101018.16;;;11.79
77728;BMP280;68312;53.502;10.030;2023-05-10T01:22:02;101021.38;;;11.85
77728;BMP280;68312;53.502;10.030;2023-05-10T01:28:14;101011.94;;;11.84
77728;BMP280;68312;53.502;10.030;2023-05-10T01:31:16;101016.91;;;11.85
77728;BMP280;68312;53.502;10.030;2023-05-10T01:39:01;101014.44;;;11.80
77728;BMP280;68312;53.502;10.030;2023-05-10T01:41:51;101010.06;;;11.84
77728;BMP280;68312;53.502;10.030;2023-05-10T01:44:43;101012.25;;;11.82
77728;BMP280;68312;53.502;10.030;2023-05-10T01:47:44;101019.22;;;11.78
77728;BMP280;68312;53.502;10.030;2023-05-10T01:50:21;101020.34;;;11.69
77728;BMP280;68312;53.502;10.030;2023-05-10T01:52:54;101017.72;;;11.69
77728;BMP280;68312;53.502;10.030;2023-05-10T01:55:25;101016.97;;;11.68
77728;BMP280;68312;53.502;10.030;2023-05-10T01:58:08;101005.81;;;11.63
77728;BMP280;68312;53.502;10.030;2023-05-10T02:00:40;101010.91;;;11.68
77728;BMP280;68312;53.502;10.030;2023-05-10T02:03:10;101006.91;;;11.62
77728;BMP280;68312;53.502;10.030;2023-05-10T02:05:41;101008.00;;;11.61
77728;BMP280;68312;53.502;10.030;2023-05-10T02:08:09;101013.25;;;11.61
77728;BMP280;68312;53.502;10.030;2023-05-10T02:10:37;101012.50;;;11.60
77728;BMP280;68312;53.502;10.030;2023-05-10T02:13:07;101011.38;;;11.61
77728;BMP280;68312;53.502;10.030;2023-05-10T02:15:35;101017.47;;;11.54
77728;BMP280;68312;53.502;10.030;2023-05-10T02:18:03;101013.75;;;11.46
77728;BMP280;68312;53.502;10.030;2023-05-10T02:20:34;101010.06;;;11.47
77728;BMP280;68312;53.502;10.030;2023-05-10T02:23:03;101011.28;;;11.41
77728;BMP280;68312;53.502;10.030;2023-05-10T02:25:31;101012.38;;;11.40
77728;BMP280;68312;53.502;10.030;2023-05-10T02:27:59;101015.00;;;11.40
77728;BMP280;68312;53.502;10.030;2023-05-10T02:30:27;101008.50;;;11.38
77728;BMP280;68312;53.502;10.030;2023-05-10T02:32:54;101011.41;;;11.36
77728;BMP280;68312;53.502;10.030;2023-05-10T02:35:22;101008.03;;;11.36
77728;BMP280;68312;53.502;10.030;2023-05-10T02:37:49;101006.34;;;11.31
77728;BMP280;68312;53.502;10.030;2023-05-10T02:40:16;101004.81;;;11.31
77728;BMP280;68312;53.502;10.030;2023-05-10T02:42:47;101003.53;;;11.28
77728;BMP280;68312;53.502;10.030;2023-05-10T02:45:20;101008.22;;;11.23
77728;BMP280;68312;53.502;10.030;2023-05-10T02:47:52;101004.97;;;11.17
77728;BMP280;68312;53.502;10.030;2023-05-10T02:50:18;100998.28;;;11.20
77728;BMP280;68312;53.502;10.030;2023-05-10T02:52:54;100996.78;;;11.19
77728;BMP280;68312;53.502;10.030;2023-05-10T02:55:30;101005.41;;;11.19
77728;BMP280;68312;53.502;10.030;2023-05-10T02:58:02;101003.91;;;11.18
77728;BMP280;68312;53.502;10.030;2023-05-10T03:00:28;100992.13;;;11.16
77728;BMP280;68312;53.502;10.030;2023-05-10T03:02:54;100987.75;;;11.20
77728;BMP280;68312;53.502;10.030;2023-05-10T03:05:20;100987.75;;;11.20
77728;BMP280;68312;53.502;10.030;2023-05-10T03:07:46;100996.47;;;11.12
77728;BMP280;68312;53.502;10.030;2023-05-10T03:10:15;100996.13;;;11.05
77728;BMP280;68312;53.502;10.030;2023-05-10T03:13:02;100996.13;;;11.05
77728;BMP280;68312;53.502;10.030;2023-05-10T03:15:58;100991.03;;;11.08
77728;BMP280;68312;53.502;10.030;2023-05-10T03:18:44;100993.97;;;11.15
77728;BMP280;68312;53.502;10.030;2023-05-10T03:21:20;100996.59;;;11.15
77728;BMP280;68312;53.502;10.030;2023-05-10T03:23:57;100993.50;;;11.13
77728;BMP280;68312;53.502;10.030;2023-05-10T03:26:34;100990.09;;;11.13
77728;BMP280;68312;53.502;10.030;2023-05-10T03:29:06;100993.50;;;11.13
77728;BMP280;68312;53.502;10.030;2023-05-10T03:31:33;100990.09;;;11.13
77728;BMP280;68312;53.502;10.030;2023-05-10T03:33:59;100991.22;;;11.12
77728;BMP280;68312;53.502;10.030;2023-05-10T03:36:24;100990.28;;;11.08
77728;BMP280;68312;53.502;10.030;2023-05-10T03:38:50;100992.13;;;11.07
77728;BMP280;68312;53.502;10.030;2023-05-10T03:41:15;100993.97;;;11.15
77728;BMP280;68312;53.502;10.030;2023-05-10T03:43:41;100994.16;;;11.10
77728;BMP280;68312;53.502;10.030;2023-05-10T03:46:06;100993.50;;;11.13
77728;BMP280;68312;53.502;10.030;2023-05-10T03:48:32;100993.19;;;11.15
77728;BMP280;68312;53.502;10.030;2023-05-10T03:50:58;100992.91;;;11.16
77728;BMP280;68312;53.502;10.030;2023-05-10T03:53:25;100987.00;;;11.19
77728;BMP280;68312;53.502;10.030;2023-05-10T03:55:50;100989.19;;;11.17
77728;BMP280;68312;53.502;10.030;2023-05-10T03:58:16;101003.13;;;11.18
77728;BMP280;68312;53.502;10.030;2023-05-10T04:00:41;100990.28;;;11.16
77728;BMP280;68312;53.502;10.030;2023-05-10T04:03:07;100992.13;;;11.16
77728;BMP280;68312;53.502;10.030;2023-05-10T04:05:32;100991.53;;;11.19
77728;BMP280;68312;53.502;10.030;2023-05-10T04:07:58;100990.09;;;11.21
77728;BMP280;68312;53.502;10.030;2023-05-10T04:10:23;100987.75;;;11.20
77728;BMP280;68312;53.502;10.030;2023-05-10T04:12:49;100993.81;;;11.20
77728;BMP280;68312;53.502;10.030;2023-05-10T04:15:14;100990.72;;;11.27
77728;BMP280;68312;53.502;10.030;2023-05-10T04:17:40;100986.69;;;11.29
77728;BMP280;68312;53.502;10.030;2023-05-10T04:20:05;100985.78;;;11.33
77728;BMP280;68312;53.502;10.030;2023-05-10T04:22:32;100990.38;;;11.36
77728;BMP280;68312;53.502;10.030;2023-05-10T04:25:00;100985.13;;;11.36
77728;BMP280;68312;53.502;10.030;2023-05-10T04:27:26;100994.56;;;11.37
77728;BMP280;68312;53.502;10.030;2023-05-10T04:29:51;100996.72;;;11.44
77728;BMP280;68312;53.502;10.030;2023-05-10T04:32:17;100992.06;;;11.49
77728;BMP280;68312;53.502;10.030;2023-05-10T04:34:43;100983.75;;;11.47
77728;BMP280;68312;53.502;10.030;2023-05-10T04:37:09;100980.00;;;11.48
77728;BMP280;68312;53.502;10.030;2023-05-10T04:39:34;100994.38;;;11.51
77728;BMP280;68312;53.502;10.030;2023-05-10T04:41:59;100990.81;;;11.55
77728;BMP280;68312;53.502;10.030;2023-05-10T04:44:28;100993.13;;;11.57
77728;BMP280;68312;53.502;10.030;2023-05-10T04:46:54;100981.03;;;11.64
77728;BMP280;68312;53.502;10.030;2023-05-10T04:49:20;100981.19;;;11.67
77728;BMP280;68312;53.502;10.030;2023-05-10T04:51:45;100980.41;;;11.75
77728;BMP280;68312;53.502;10.030;2023-05-10T04:54:14;100983.75;;;11.84
77728;BMP280;68312;53.502;10.030;2023-05-10T04:56:39;100988.84;;;11.89
77728;BMP280;68312;53.502;10.030;2023-05-10T04:59:05;100988.22;;;11.92
77728;BMP280;68312;53.502;10.030;2023-05-10T05:01:30;100992.69;;;12.00
77728;BMP280;68312;53.502;10.030;2023-05-10T05:03:55;100992.50;;;12.05
77728;BMP280;68312;53.502;10.030;2023-05-10T05:06:24;100992.47;;;12.13
77728;BMP280;68312;53.502;10.030;2023-05-10T05:08:50;100987.75;;;12.18
77728;BMP280;68312;53.502;10.030;2023-05-10T05:11:17;100984.03;;;12.28
77728;BMP280;68312;53.502;10.030;2023-05-10T05:13:42;100982.75;;;12.34
77728;BMP280;68312;53.502;10.030;2023-05-10T05:16:08;100989.34;;;12.40
77728;BMP280;68312;53.502;10.030;2023-05-10T05:18:34;100985.25;;;12.50
77728;BMP280;68312;53.502;10.030;2023-05-10T05:20:59;100986.44;;;12.61
77728;BMP280;68312;53.502;10.030;2023-05-10T05:23:25;100985.31;;;12.62
77728;BMP280;68312;53.502;10.030;2023-05-10T05:25:53;100991.28;;;12.71
77728;BMP280;68312;53.502;10.030;2023-05-10T05:28:20;100993.22;;;12.82
77728;BMP280;68312;53.502;10.030;2023-05-10T05:30:46;100986.50;;;12.93
77728;BMP280;68312;53.502;10.030;2023-05-10T05:33:13;100982.34;;;13.04
77728;BMP280;68312;53.502;10.030;2023-05-10T05:35:39;100990.03;;;13.09
77728;BMP280;68312;53.502;10.030;2023-05-10T05:38:04;100997.16;;;13.29
77728;BMP280;68312;53.502;10.030;2023-05-10T05:40:30;100990.16;;;13.44
77728;BMP280;68312;53.502;10.030;2023-05-10T05:42:55;100985.81;;;13.60
77728;BMP280;68312;53.502;10.030;2023-05-10T05:45:21;100981.72;;;13.74
77728;BMP280;68312;53.502;10.030;2023-05-10T05:47:46;100987.22;;;13.93
77728;BMP280;68312;53.502;10.030;2023-05-10T05:50:12;100981.50;;;14.03
77728;BMP280;68312;53.502;10.030;2023-05-10T05:52:37;100993.19;;;14.14
77728;BMP280;68312;53.502;10.030;2023-05-10T05:55:03;100991.63;;;14.24
77728;BMP280;68312;53.502;10.030;2023-05-10T05:57:29;100984.66;;;14.20
77728;BMP280;68312;53.502;10.030;2023-05-10T05:59:54;100997.22;;;14.35
77728;BMP280;68312;53.502;10.030;2023-05-10T06:02:19;100987.72;;;14.45
77728;BMP280;68312;53.502;10.030;2023-05-10T06:04:45;100981.88;;;14.52
77728;BMP280;68312;53.502;10.030;2023-05-10T06:07:10;100980.63;;;14.61
77728;BMP280;68312;53.502;10.030;2023-05-10T06:09:36;100986.72;;;14.77
77728;BMP280;68312;53.502;10.030;2023-05-10T06:12:01;100988.34;;;14.81
77728;BMP280;68312;53.502;10.030;2023-05-10T06:14:27;100983.28;;;14.88
77728;BMP280;68312;53.502;10.030;2023-05-10T06:16:52;100985.00;;;14.96
77728;BMP280;68312;53.502;10.030;2023-05-10T06:19:18;100996.41;;;15.12
77728;BMP280;68312;53.502;10.030;2023-05-10T06:21:43;100998.19;;;15.23
77728;BMP280;68312;53.502;10.030;2023-05-10T06:24:09;101006.13;;;15.23
77728;BMP280;68312;53.502;10.030;2023-05-10T06:26:34;101005.38;;;15.23
77728;BMP280;68312;53.502;10.030;2023-05-10T06:29:00;101002.81;;;15.26
77728;BMP280;68312;53.502;10.030;2023-05-10T06:31:26;101007.44;;;15.29
77728;BMP280;68312;53.502;10.030;2023-05-10T06:33:51;101009.97;;;15.25
77728;BMP280;68312;53.502;10.030;2023-05-10T06:36:17;101008.19;;;15.45
77728;BMP280;68312;53.502;10.030;2023-05-10T06:38:42;101001.38;;;15.59
77728;BMP280;68312;53.502;10.030;2023-05-10T06:41:08;101006.16;;;15.69
77728;BMP280;68312;53.502;10.030;2023-05-10T06:43:33;101008.28;;;15.94
77728;BMP280;68312;53.502;10.030;2023-05-10T06:45:59;101009.22;;;16.20
77728;BMP280;68312;53.502;10.030;2023-05-10T06:48:24;101008.97;;;16.43
77728;BMP280;68312;53.502;10.030;2023-05-10T06:50:50;101004.81;;;16.61
77728;BMP280;68312;53.502;10.030;2023-05-10T06:53:15;101008.34;;;16.68
77728;BMP280;68312;53.502;10.030;2023-05-10T06:55:44;101002.78;;;16.55
77728;BMP280;68312;53.502;10.030;2023-05-10T06:58:09;101010.75;;;16.36
77728;BMP280;68312;53.502;10.030;2023-05-10T07:00:35;101003.25;;;16.79
77728;BMP280;68312;53.502;10.030;2023-05-10T07:03:00;101006.09;;;17.08
77728;BMP280;68312;53.502;10.030;2023-05-10T07:05:26;101007.38;;;17.17
77728;BMP280;68312;53.502;10.030;2023-05-10T07:07:51;101003.13;;;17.13
77728;BMP280;68312;53.502;10.030;2023-05-10T07:10:17;101002.19;;;17.46
77728;BMP280;68312;53.502;10.030;2023-05-10T07:12:42;101006.44;;;17.76
77728;BMP280;68312;53.502;10.030;2023-05-10T07:15:08;101008.28;;;17.97
77728;BMP280;68312;53.502;10.030;2023-05-10T07:17:34;101007.16;;;17.98
77728;BMP280;68312;53.502;10.030;2023-05-10T07:19:59;101011.25;;;17.67
77728;BMP280;68312;53.502;10.030;2023-05-10T07:22:25;101008.41;;;17.57
77728;BMP280;68312;53.502;10.030;2023-05-10T07:24:51;101015.25;;;17.32
77728;BMP280;68312;53.502;10.030;2023-05-10T07:27:16;101011.88;;;17.35
77728;BMP280;68312;53.502;10.030;2023-05-10T07:29:42;101013.16;;;17.44
77728;BMP280;68312;53.502;10.030;2023-05-10T07:32:07;101023.88;;;17.73
77728;BMP280;68312;53.502;10.030;2023-05-10T07:34:33;101018.56;;;17.29
77728;BMP280;68312;53.502;10.030;2023-05-10T07:36:59;101022.81;;;17.34
77728;BMP280;68312;53.502;10.030;2023-05-10T07:39:24;101021.66;;;17.31
77728;BMP280;68312;53.502;10.030;2023-05-10T07:41:50;101026.63;;;17.33
77728;BMP280;68312;53.502;10.030;2023-05-10T07:44:16;101018.78;;;17.17
77728;BMP280;68312;53.502;10.030;2023-05-10T07:46:44;101012.94;;;17.31
77728;BMP280;68312;53.502;10.030;2023-05-10T07:49:13;101013.38;;;17.33
77728;BMP280;68312;53.502;10.030;2023-05-10T07:51:38;101015.63;;;17.34
77728;BMP280;68312;53.502;10.030;2023-05-10T07:54:04;101017.19;;;17.35
77728;BMP280;68312;53.502;10.030;2023-05-10T07:56:31;101018.38;;;17.19
77728;BMP280;68312;53.502;10.030;2023-05-10T07:59:00;101017.22;;;17.16
77728;BMP280;68312;53.502;10.030;2023-05-10T08:01:30;101015.00;;;17.18
77728;BMP280;68312;53.502;10.030;2023-05-10T08:03:57;101031.69;;;17.00
77728;BMP280;68312;53.502;10.030;2023-05-10T08:06:23;101028.63;;;16.98
77728;BMP280;68312;53.502;10.030;2023-05-10T08:08:48;101036.75;;;17.05
77728;BMP280;68312;53.502;10.030;2023-05-10T08:11:17;101033.31;;;17.05
77728;BMP280;68312;53.502;10.030;2023-05-10T08:13:44;101034.28;;;17.15
77728;BMP280;68312;53.502;10.030;2023-05-10T08:16:10;101050.06;;;17.49
77728;BMP280;68312;53.502;10.030;2023-05-10T08:18:37;101044.50;;;17.58
77728;BMP280;68312;53.502;10.030;2023-05-10T08:21:03;101046.25;;;17.47
77728;BMP280;68312;53.502;10.030;2023-05-10T08:23:29;101041.78;;;17.54
77728;BMP280;68312;53.502;10.030;2023-05-10T08:25:55;101039.44;;;17.49
77728;BMP280;68312;53.502;10.030;2023-05-10T08:28:20;101049.56;;;17.44
77728;BMP280;68312;53.502;10.030;2023-05-10T08:30:46;101051.06;;;17.41
77728;BMP280;68312;53.502;10.030;2023-05-10T08:33:11;101050.81;;;17.50
77728;BMP280;68312;53.502;10.030;2023-05-10T08:35:37;101047.66;;;17.41
77728;BMP280;68312;53.502;10.030;2023-05-10T08:38:02;101047.44;;;17.53
77728;BMP280;68312;53.502;10.030;2023-05-10T08:40:28;101047.91;;;17.58
77728;BMP280;68312;53.502;10.030;2023-05-10T08:42:59;101049.16;;;17.64
77728;BMP280;68312;53.502;10.030;2023-05-10T08:45:35;101055.59;;;17.89
77728;BMP280;68312;53.502;10.030;2023-05-10T08:48:09;101048.69;;;18.06
77728;BMP280;68312;53.502;10.030;2023-05-10T08:50:36;101051.09;;;18.18
77728;BMP280;68312;53.502;10.030;2023-05-10T08:53:10;101055.38;;;17.97
77728;BMP280;68312;53.502;10.030;2023-05-10T08:55:38;101060.63;;;18.19
77728;BMP280;68312;53.502;10.030;2023-05-10T08:58:06;101058.97;;;18.37
77728;BMP280;68312;53.502;10.030;2023-05-10T09:00:32;101064.88;;;18.23
77728;BMP280;68312;53.502;10.030;2023-05-10T09:02:59;101067.06;;;18.18
77728;BMP280;68312;53.502;10.030;2023-05-10T09:05:26;101075.44;;;18.20
77728;BMP280;68312;53.502;10.030;2023-05-10T09:07:52;101075.97;;;18.29
77728;BMP280;68312;53.502;10.030;2023-05-10T09:10:19;101086.03;;;18.17
77728;BMP280;68312;53.502;10.030;2023-05-10T09:12:46;101087.81;;;17.84
77728;BMP280;68312;53.502;10.030;2023-05-10T09:15:15;101092.50;;;17.68
77728;BMP280;68312;53.502;10.030;2023-05-10T09:17:42;101094.84;;;17.73
77728;BMP280;68312;53.502;10.030;2023-05-10T09:20:09;101095.75;;;17.58
77728;BMP280;68312;53.502;10.030;2023-05-10T09:22:35;101095.78;;;17.40
77728;BMP280;68312;53.502;10.030;2023-05-10T09:25:08;101097.91;;;17.53
77728;BMP280;68312;53.502;10.030;2023-05-10T09:27:36;101106.09;;;17.44
77728;BMP280;68312;53.502;10.030;2023-05-10T09:30:03;101120.69;;;17.13
77728;BMP280;68312;53.502;10.030;2023-05-10T09:32:38;101124.19;;;16.61
77728;BMP280;68312;53.502;10.030;2023-05-10T09:35:22;101130.22;;;16.28
77728;BMP280;68312;53.502;10.030;2023-05-10T09:37:52;101137.75;;;15.80
77728;BMP280;68312;53.502;10.030;2023-05-10T09:40:27;101143.91;;;15.57
77728;BMP280;68312;53.502;10.030;2023-05-10T09:45:32;101154.19;;;15.31
77728;BMP280;68312;53.502;10.030;2023-05-10T09:48:02;101149.50;;;15.40
77728;BMP280;68312;53.502;10.030;2023-05-10T09:50:31;101149.31;;;15.45
77728;BMP280;68312;53.502;10.030;2023-05-10T09:53:02;101160.09;;;15.40
77728;BMP280;68312;53.502;10.030;2023-05-10T09:55:43;101158.56;;;15.12
77728;BMP280;68312;53.502;10.030;2023-05-10T09:58:12;101164.44;;;14.94
77728;BMP280;68312;53.502;10.030;2023-05-10T10:00:40;101168.09;;;14.78
77728;BMP280;68312;53.502;10.030;2023-05-10T10:03:18;101180.97;;;14.79
77728;BMP280;68312;53.502;10.030;2023-05-10T10:05:46;101181.22;;;14.74
77728;BMP280;68312;53.502;10.030;2023-05-10T10:08:14;101187.06;;;14.68
77728;BMP280;68312;53.502;10.030;2023-05-10T10:10:41;101185.41;;;14.64
77728;BMP280;68312;53.502;10.030;2023-05-10T10:13:08;101192.91;;;14.62
77728;BMP280;68312;53.502;10.030;2023-05-10T10:15:34;101202.38;;;14.51
77728;BMP280;68312;53.502;10.030;2023-05-10T10:18:00;101198.84;;;14.47
77728;BMP280;68312;53.502;10.030;2023-05-10T10:20:27;101205.22;;;14.34
77728;BMP280;68312;53.502;10.030;2023-05-10T10:22:53;101203.66;;;14.21
77728;BMP280;68312;53.502;10.030;2023-05-10T10:25:19;101204.50;;;14.14
77728;BMP280;68312;53.502;10.030;2023-05-10T10:33:24;101204.66;;;14.52
77728;BMP280;68312;53.502;10.030;2023-05-10T10:36:03;101209.63;;;14.54
77728;BMP280;68312;53.502;10.030;2023-05-10T10:38:55;101214.13;;;14.53
77728;BMP280;68312;53.502;10.030;2023-05-10T10:41:40;101213.56;;;14.48
77728;BMP280;68312;53.502;10.030;2023-05-10T10:47:07;101212.47;;;14.61
77728;BMP280;68312;53.502;10.030;2023-05-10T10:49:42;101213.06;;;14.78
77728;BMP280;68312;53.502;10.030;2023-05-10T10:52:37;101217.66;;;14.93
77728;BMP280;68312;53.502;10.030;2023-05-10T10:55:08;101215.34;;;15.03
77728;BMP280;68312;53.502;10.030;2023-05-10T10:57:55;101222.72;;;15.09
77728;BMP280;68312;53.502;10.030;2023-05-10T11:00:28;101216.13;;;15.03
77728;BMP280;68312;53.502;10.030;2023-05-10T11:03:11;101223.69;;;15.17
77728;BMP280;68312;53.502;10.030;2023-05-10T11:05:48;101223.25;;;15.15
77728;BMP280;68312;53.502;10.030;2023-05-10T11:08:28;101227.22;;;15.21
77728;BMP280;68312;53.502;10.030;2023-05-10T11:16:19;101227.75;;;15.65
77728;BMP280;68312;53.502;10.030;2023-05-10T11:19:07;101229.78;;;15.83
77728;BMP280;68312;53.502;10.030;2023-05-10T11:21:46;101229.66;;;15.91
77728;BMP280;68312;53.502;10.030;2023-05-10T11:24:18;101233.72;;;15.89
77728;BMP280;68312;53.502;10.030;2023-05-10T11:26:53;101233.84;;;15.65
77728;BMP280;68312;53.502;10.030;2023-05-10T11:29:18;101237.38;;;15.57
77728;BMP280;68312;53.502;10.030;2023-05-10T11:31:50;101231.41;;;15.33
77728;BMP280;68312;53.502;10.030;2023-05-10T11:34:27;101249.41;;;15.16
77728;BMP280;68312;53.502;10.030;2023-05-10T11:36:56;101248.06;;;14.98
77728;BMP280;68312;53.502;10.030;2023-05-10T11:39:30;101246.22;;;14.87
77728;BMP280;68312;53.502;10.030;2023-05-10T11:41:57;101256.03;;;14.75
77728;BMP280;68312;53.502;10.030;2023-05-10T11:44:29;101258.09;;;14.58
77728;BMP280;68312;53.502;10.030;2023-05-10T11:46:59;101265.91;;;14.54
77728;BMP280;68312;53.502;10.030;2023-05-10T11:49:25;101260.06;;;14.61
77728;BMP280;68312;53.502;10.030;2023-05-10T11:51:51;101269.59;;;14.73
77728;BMP280;68312;53.502;10.030;2023-05-10T11:54:16;101264.31;;;14.85
77728;BMP280;68312;53.502;10.030;2023-05-10T11:56:42;101266.38;;;15.03
77728;BMP280;68312;53.502;10.030;2023-05-10T11:59:08;101271.41;;;15.32
77728;BMP280;68312;53.502;10.030;2023-05-10T12:01:34;101274.50;;;15.34
77728;BMP280;68312;53.502;10.030;2023-05-10T12:04:00;101269.13;;;15.57
77728;BMP280;68312;53.502;10.030;2023-05-10T12:06:37;101266.78;;;15.79
77728;BMP280;68312;53.502;10.030;2023-05-10T12:09:06;101275.16;;;15.81
77728;BMP280;68312;53.502;10.030;2023-05-10T12:11:36;101270.19;;;16.07
77728;BMP280;68312;53.502;10.030;2023-05-10T12:14:04;101264.53;;;16.08
77728;BMP280;68312;53.502;10.030;2023-05-10T12:16:30;101271.09;;;15.99
77728;BMP280;68312;53.502;10.030;2023-05-10T12:18:57;101275.72;;;16.02
77728;BMP280;68312;53.502;10.030;2023-05-10T12:21:25;101273.94;;;16.06
77728;BMP280;68312;53.502;10.030;2023-05-10T12:23:59;101281.31;;;16.12
77728;BMP280;68312;53.502;10.030;2023-05-10T12:26:27;101283.56;;;15.99
77728;BMP280;68312;53.502;10.030;2023-05-10T12:28:54;101285.84;;;16.12
77728;BMP280;68312;53.502;10.030;2023-05-10T12:31:21;101289.84;;;16.06
77728;BMP280;68312;53.502;10.030;2023-05-10T12:33:49;101290.69;;;16.10
77728;BMP280;68312;53.502;10.030;2023-05-10T12:36:15;101293.16;;;16.03
77728;BMP280;68312;53.502;10.030;2023-05-10T12:38:43;101293.63;;;15.93
77728;BMP280;68312;53.502;10.030;2023-05-10T12:41:11;101292.59;;;16.25
77728;BMP280;68312;53.502;10.030;2023-05-10T12:43:40;101290.31;;;16.38
77728;BMP280;68312;53.502;10.030;2023-05-10T12:46:10;101296.59;;;16.61
77728;BMP280;68312;53.502;10.030;2023-05-10T12:48:39;101291.41;;;16.83
77728;BMP280;68312;53.502;10.030;2023-05-10T12:51:06;101287.94;;;16.64
77728;BMP280;68312;53.502;10.030;2023-05-10T12:53:33;101294.25;;;16.75
77728;BMP280;68312;53.502;10.030;2023-05-10T12:55:58;101300.50;;;16.82
77728;BMP280;68312;53.502;10.030;2023-05-10T12:58:24;101297.31;;;16.77
77728;BMP280;68312;53.502;10.030;2023-05-10T13:00:50;101302.63;;;16.92
77728;BMP280;68312;53.502;10.030;2023-05-10T13:03:15;101301.00;;;16.87
77728;BMP280;68312;53.502;10.030;2023-05-10T13:05:41;101300.69;;;16.59
77728;BMP280;68312;53.502;10.030;2023-05-10T13:08:06;101306.22;;;16.69
77728;BMP280;68312;53.502;10.030;2023-05-10T13:10:32;101298.28;;;16.84
77728;BMP280;68312;53.502;10.030;2023-05-10T13:12:58;101301.19;;;16.94
77728;BMP280;68312;53.502;10.030;2023-05-10T13:15:25;101303.31;;;16.89
77728;BMP280;68312;53.502;10.030;2023-05-10T13:17:51;101295.28;;;17.19
77728;BMP280;68312;53.502;10.030;2023-05-10T13:20:17;101297.16;;;17.19
77728;BMP280;68312;53.502;10.030;2023-05-10T13:22:43;101303.91;;;17.47
77728;BMP280;68312;53.502;10.030;2023-05-10T13:25:09;101300.44;;;17.65
77728;BMP280;68312;53.502;10.030;2023-05-10T13:27:35;101304.50;;;17.59
77728;BMP280;68312;53.502;10.030;2023-05-10T13:30:01;101304.63;;;17.66
77728;BMP280;68312;53.502;10.030;2023-05-10T13:32:27;101300.19;;;17.70
77728;BMP280;68312;53.502;10.030;2023-05-10T13:34:53;101312.25;;;17.67
77728;BMP280;68312;53.502;10.030;2023-05-10T13:37:19;101303.06;;;17.28
77728;BMP280;68312;53.502;10.030;2023-05-10T13:39:45;101305.13;;;17.19
77728;BMP280;68312;53.502;10.030;2023-05-10T13:42:13;101301.78;;;17.03
77728;BMP280;68312;53.502;10.030;2023-05-10T13:44:39;101315.00;;;17.18
77728;BMP280;68312;53.502;10.030;2023-05-10T13:47:05;101304.88;;;17.24
77728;BMP280;68312;53.502;10.030;2023-05-10T13:49:30;101311.44;;;17.45
77728;BMP280;68312;53.502;10.030;2023-05-10T13:51:56;101306.53;;;17.47
77728;BMP280;68312;53.502;10.030;2023-05-10T13:54:23;101303.56;;;17.52
77728;BMP280;68312;53.502;10.030;2023-05-10T13:56:49;101299.88;;;17.56
77728;BMP280;68312;53.502;10.030;2023-05-10T13:59:15;101299.78;;;17.90
77728;BMP280;68312;53.502;10.030;2023-05-10T14:01:41;101302.50;;;18.12
77728;BMP280;68312;53.502;10.030;2023-05-10T14:04:11;101302.88;;;18.11
77728;BMP280;68312;53.502;10.030;2023-05-10T14:06:36;101303.59;;;18.11
77728;BMP280;68312;53.502;10.030;2023-05-10T14:09:03;101292.16;;;18.29
77728;BMP280;68312;53.502;10.030;2023-05-10T14:11:28;101290.31;;;18.33
77728;BMP280;68312;53.502;10.030;2023-05-10T14:13:54;101284.59;;;18.31
77728;BMP280;68312;53.502;10.030;2023-05-10T14:16:20;101290.56;;;18.25
77728;BMP280;68312;53.502;10.030;2023-05-10T14:18:48;101298.47;;;18.21